Time;durP1;ratioP1;P1;durP2;ratioP2;P2;SDS_P1;SDS_P2;PMS_P1;PMS_P2;Temp;Humidity;BMP_temperature;BMP_pressure;BME280_temperature;BME280_humidity;BME280_pressure;Samples;Min_cycle;Max_cycle;Signal;HPM_P1;HPM_P2
2023/02/17 00:00:25;;;;;;;1.92;1.17;;;22.60;51.90;;;;;;5049542;28;20594;-53
2023/02/17 00:02:59;;;;;;;1.73;1.08;;;22.60;51.90;;;;;;5032257;28;20192;-53
2023/02/17 00:05:30;;;;;;;1.10;1.00;;;22.60;51.90;;;;;;5032251;28;20207;-50
2023/02/17 00:08:03;;;;;;;1.45;1.20;;;22.60;51.90;;;;;;5034507;28;20200;-52
2023/02/17 00:10:33;;;;;;;1.42;0.95;;;22.60;51.90;;;;;;5032150;28;20200;-55
2023/02/17 00:13:04;;;;;;;1.88;1.00;;;22.60;51.90;;;;;;5049452;28;20195;-53
2023/02/17 00:15:35;;;;;;;1.23;1.08;;;22.60;51.90;;;;;;5039373;28;20200;-54
2023/02/17 00:18:05;;;;;;;1.75;0.95;;;22.70;51.90;;;;;;5032019;28;20203;-51
2023/02/17 00:20:38;;;;;;;0.90;0.85;;;22.70;51.80;;;;;;5032188;28;20239;-53
2023/02/17 00:23:10;;;;;;;1.63;0.90;;;22.70;51.80;;;;;;5031921;28;20215;-54
2023/02/17 00:25:41;;;;;;;1.63;0.98;;;22.70;51.80;;;;;;5031169;28;20192;-52
2023/02/17 00:28:12;;;;;;;1.13;0.90;;;22.70;51.90;;;;;;5031410;28;20215;-53
2023/02/17 00:30:43;;;;;;;1.92;0.93;;;22.70;51.80;;;;;;5031697;28;20204;-53
2023/02/17 00:33:13;;;;;;;1.65;1.00;;;22.70;51.90;;;;;;5031926;28;20787;-54
2023/02/17 00:35:44;;;;;;;0.75;0.65;;;22.80;51.90;;;;;;5031295;28;20204;-53
2023/02/17 00:38:16;;;;;;;1.55;1.13;;;22.80;51.90;;;;;;5044205;28;20207;-54
2023/02/17 00:40:47;;;;;;;1.20;1.00;;;22.80;52.00;;;;;;5048387;28;20218;-52
2023/02/17 00:43:18;;;;;;;1.52;0.88;;;22.80;52.00;;;;;;5051570;28;20278;-52
2023/02/17 00:45:48;;;;;;;1.75;1.17;;;22.80;52.00;;;;;;5051835;28;20199;-54
2023/02/17 00:48:19;;;;;;;0.88;0.80;;;22.80;52.00;;;;;;5051783;28;20646;-54
2023/02/17 00:50:50;;;;;;;1.08;0.98;;;22.90;52.00;;;;;;5051669;28;20226;-52
2023/02/17 00:53:22;;;;;;;3.05;1.00;;;22.90;52.00;;;;;;5051474;28;20200;-54
2023/02/17 00:55:53;;;;;;;2.00;1.00;;;22.90;51.90;;;;;;5051579;28;20222;-54
2023/02/17 00:58:24;;;;;;;1.23;0.93;;;22.90;51.80;;;;;;5044188;28;20205;-54
2023/02/17 01:00:56;;;;;;;1.10;1.00;;;22.90;51.80;;;;;;5043493;28;20231;-53
2023/02/17 01:03:28;;;;;;;1.25;1.00;;;22.90;51.80;;;;;;5031161;28;20200;-54
2023/02/17 01:05:59;;;;;;;1.77;0.80;;;22.90;51.80;;;;;;5031515;28;20196;-52
2023/02/17 01:08:31;;;;;;;2.10;1.17;;;22.90;51.90;;;;;;5045365;28;20366;-51
2023/02/17 01:11:02;;;;;;;1.25;0.95;;;23.00;52.00;;;;;;5050696;28;20216;-53
2023/02/17 01:13:33;;;;;;;1.50;0.85;;;23.00;52.00;;;;;;5050890;28;20253;-50
2023/02/17 01:16:03;;;;;;;1.05;0.90;;;23.00;51.90;;;;;;5050897;28;20200;-52
2023/02/17 01:18:34;;;;;;;1.73;0.77;;;23.00;52.00;;;;;;5046596;28;20191;-54
2023/02/17 01:21:05;;;;;;;1.50;1.10;;;23.00;52.00;;;;;;5030869;28;20600;-50
2023/02/17 01:23:37;;;;;;;1.23;1.08;;;23.10;52.00;;;;;;5030826;28;20203;-53
2023/02/17 01:26:08;;;;;;;2.13;0.88;;;23.10;52.00;;;;;;5031131;28;20196;-52
2023/02/17 01:28:39;;;;;;;1.33;1.08;;;23.10;52.00;;;;;;5046057;28;20203;-51
2023/02/17 01:31:10;;;;;;;2.03;1.10;;;23.20;52.00;;;;;;5051255;28;20220;-51
2023/02/17 01:33:41;;;;;;;3.08;1.23;;;23.20;52.00;;;;;;5051272;28;20199;-53
2023/02/17 01:36:14;;;;;;;1.05;0.85;;;23.10;52.00;;;;;;5049588;28;20196;-53
2023/02/17 01:38:47;;;;;;;1.58;1.00;;;23.20;52.00;;;;;;5049349;28;20203;-54
2023/02/17 01:41:20;;;;;;;0.80;0.77;;;23.20;52.00;;;;;;5042438;28;20609;-54
2023/02/17 01:44:12;;;;;;;1.60;1.02;;;23.20;51.90;;;;;;5031339;28;20207;-54
2023/02/17 01:46:44;;;;;;;1.80;0.98;;;23.20;51.90;;;;;;5031390;28;20196;-55
2023/02/17 01:49:24;;;;;;;0.77;0.77;;;23.30;52.00;;;;;;5051017;28;20222;-54
2023/02/17 01:51:58;;;;;;;1.33;0.90;;;23.30;52.00;;;;;;5050864;28;20223;-53
2023/02/17 01:54:35;;;;;;;1.75;0.90;;;23.30;52.00;;;;;;5050292;28;20195;-55
2023/02/17 01:57:07;;;;;;;1.23;0.98;;;23.30;52.00;;;;;;5032341;28;20207;-55
2023/02/17 01:59:38;;;;;;;1.42;1.00;;;23.30;52.00;;;;;;5030462;28;20223;-54
2023/02/17 02:02:09;;;;;;;1.20;1.02;;;23.40;52.00;;;;;;5030557;28;20228;-54
2023/02/17 02:04:44;;;;;;;1.27;0.85;;;23.40;52.00;;;;;;5030944;28;20192;-53
2023/02/17 02:07:19;;;;;;;1.38;0.85;;;23.40;52.00;;;;;;5034788;28;20570;-53
2023/02/17 02:09:54;;;;;;;1.23;1.00;;;23.50;52.00;;;;;;5050582;28;20564;-54
2023/02/17 02:12:27;;;;;;;1.48;1.00;;;23.50;51.90;;;;;;5030756;28;20220;-54
2023/02/17 02:15:11;;;;;;;1.27;0.90;;;23.50;51.90;;;;;;5030399;28;20204;-53
2023/02/17 02:17:55;;;;;;;1.98;0.98;;;23.50;51.90;;;;;;5030070;28;20553;-53
2023/02/17 02:21:04;;;;;;;1.38;1.00;;;23.50;51.90;;;;;;5031004;28;20215;-49
2023/02/17 02:23:53;;;;;;;0.70;0.70;;;23.60;51.90;;;;;;5034088;28;20338;-53
2023/02/17 02:27:07;;;;;;;2.17;1.10;;;23.60;51.90;;;;;;5034674;28;20200;-51
2023/02/17 02:30:16;;;;;;;1.63;1.05;;;23.60;51.80;;;;;;5033941;28;20196;-54
2023/02/17 02:32:54;;;;;;;1.80;1.10;;;23.60;51.80;;;;;;5034039;28;20589;-54
2023/02/17 02:35:31;;;;;;;1.00;0.73;;;23.70;51.80;;;;;;5035370;28;20206;-53
2023/02/17 02:38:05;;;;;;;1.63;0.90;;;23.70;51.90;;;;;;5046064;28;20214;-51
2023/02/17 02:40:37;;;;;;;1.20;1.00;;;23.70;51.90;;;;;;5041512;28;20226;-53
2023/02/17 02:43:08;;;;;;;1.42;0.90;;;23.70;51.90;;;;;;5033946;28;20196;-52
2023/02/17 02:45:39;;;;;;;2.53;1.33;;;23.70;51.80;;;;;;5033879;28;20200;-54
2023/02/17 02:48:11;;;;;;;1.10;1.00;;;23.80;51.90;;;;;;5036519;28;20555;-53
2023/02/17 02:50:57;;;;;;;1.88;0.95;;;23.80;51.80;;;;;;5034203;28;20204;-54
2023/02/17 02:53:57;;;;;;;1.02;0.73;;;23.80;51.80;;;;;;5033936;28;20200;-54
2023/02/17 02:56:44;;;;;;;1.30;0.80;;;23.80;51.70;;;;;;5029226;28;20207;-50
2023/02/17 02:59:26;;;;;;;1.10;0.82;;;23.80;51.70;;;;;;5034206;28;20192;-52
2023/02/17 03:02:03;;;;;;;1.05;0.80;;;23.80;51.70;;;;;;5034006;28;20239;-53
2023/02/17 03:04:40;;;;;;;1.05;0.80;;;23.90;51.70;;;;;;5033894;28;20306;-54
2023/02/17 03:07:20;;;;;;;2.28;0.90;;;23.90;51.70;;;;;;5037176;28;20203;-52
2023/02/17 03:09:52;;;;;;;1.30;1.20;;;23.90;51.60;;;;;;5053668;28;20564;-54
2023/02/17 03:12:23;;;;;;;1.55;1.00;;;23.90;51.60;;;;;;5054095;28;20223;-50
2023/02/17 03:14:57;;;;;;;1.58;0.95;;;23.90;51.50;;;;;;5053193;28;20227;-53
2023/02/17 03:17:28;;;;;;;1.75;0.95;;;24.00;51.60;;;;;;5032963;28;20204;-54
2023/02/17 03:20:01;;;;;;;1.38;1.00;;;24.00;51.60;;;;;;5035414;28;20187;-52
2023/02/17 03:22:35;;;;;;;0.90;0.80;;;24.00;51.50;;;;;;5032914;28;20282;-53
2023/02/17 03:25:06;;;;;;;0.80;0.80;;;24.00;51.50;;;;;;5033194;28;20196;-51
2023/02/17 03:27:37;;;;;;;1.25;0.95;;;24.00;51.50;;;;;;5033448;28;20207;-52
2023/02/17 03:30:10;;;;;;;1.73;1.10;;;24.10;51.50;;;;;;5033401;28;20192;-50
2023/02/17 03:32:40;;;;;;;1.15;0.80;;;24.10;51.50;;;;;;5032480;28;20708;-54
2023/02/17 03:35:13;;;;;;;1.67;0.93;;;24.10;51.40;;;;;;5032709;28;20222;-53
2023/02/17 03:37:44;;;;;;;0.82;0.75;;;24.10;51.40;;;;;;5035050;28;20207;-49
2023/02/17 03:40:15;;;;;;;2.47;1.00;;;24.10;51.40;;;;;;5032871;28;20208;-53
2023/02/17 03:42:45;;;;;;;1.27;1.00;;;24.10;51.30;;;;;;5032979;28;20232;-53
2023/02/17 03:45:16;;;;;;;1.67;0.80;;;24.10;51.30;;;;;;5032863;28;20196;-51
2023/02/17 03:47:47;;;;;;;1.35;1.10;;;24.20;51.40;;;;;;5032818;28;20687;-52
2023/02/17 03:50:19;;;;;;;1.83;0.90;;;24.20;51.40;;;;;;5032717;28;20208;-54
2023/02/17 03:52:50;;;;;;;1.05;0.80;;;24.20;51.40;;;;;;5032611;28;20220;-51
2023/02/17 03:55:21;;;;;;;0.75;0.73;;;24.20;51.30;;;;;;5034229;28;20200;-51
2023/02/17 03:57:51;;;;;;;0.90;0.80;;;24.20;51.30;;;;;;5041717;28;20204;-53
2023/02/17 04:00:22;;;;;;;1.55;0.80;;;24.20;51.30;;;;;;5032927;28;20239;-53
2023/02/17 04:02:53;;;;;;;1.55;1.15;;;24.20;51.20;;;;;;5032621;28;20228;-52
2023/02/17 04:05:26;;;;;;;1.35;0.80;;;24.20;51.20;;;;;;5031635;28;20199;-51
2023/02/17 04:07:57;;;;;;;1.23;0.90;;;24.30;51.20;;;;;;5042335;28;20210;-51
2023/02/17 04:10:27;;;;;;;2.80;0.90;;;24.30;51.80;;;;;;5052393;28;20202;-55
2023/02/17 04:12:58;;;;;;;1.75;1.02;;;24.30;51.20;;;;;;5040764;28;20200;-54
2023/02/17 04:15:29;;;;;;;1.02;0.70;;;24.30;51.20;;;;;;5031943;28;20283;-54
2023/02/17 04:17:59;;;;;;;1.08;0.93;;;24.30;51.20;;;;;;5042901;28;20195;-53
2023/02/17 04:20:32;;;;;;;1.02;0.77;;;24.40;51.20;;;;;;5052345;28;20660;-54
2023/02/17 04:23:02;;;;;;;1.67;0.75;;;24.30;51.10;;;;;;5052259;28;20223;-53
2023/02/17 04:25:35;;;;;;;0.88;0.70;;;24.40;51.20;;;;;;5052384;28;20195;-53
2023/02/17 04:28:06;;;;;;;1.48;0.80;;;24.40;51.20;;;;;;5052441;28;20199;-56
2023/02/17 04:30:37;;;;;;;1.35;0.80;;;24.40;51.20;;;;;;5052072;28;20191;-52
2023/02/17 04:33:09;;;;;;;1.45;0.90;;;24.40;51.10;;;;;;5052125;28;20670;-52
2023/02/17 04:35:42;;;;;;;0.93;0.60;;;24.40;51.10;;;;;;5050521;28;20215;-54
2023/02/17 04:38:19;;;;;;;1.27;0.80;;;24.40;51.00;;;;;;5047947;28;20200;-53
2023/02/17 04:40:50;;;;;;;1.25;0.80;;;24.50;51.10;;;;;;5034036;28;20195;-55
2023/02/17 04:43:21;;;;;;;2.20;0.90;;;24.50;51.10;;;;;;5051600;28;20214;-52
2023/02/17 04:45:51;;;;;;;1.90;0.80;;;24.50;51.00;;;;;;5051917;28;20573;-55
2023/02/17 04:48:22;;;;;;;1.42;0.60;;;24.50;51.00;;;;;;5052091;28;20200;-54
2023/02/17 04:50:55;;;;;;;1.00;0.90;;;24.50;51.00;;;;;;5051877;28;20595;-52
2023/02/17 04:53:26;;;;;;;0.70;0.60;;;24.50;51.00;;;;;;5051749;28;20196;-52
2023/02/17 04:55:57;;;;;;;1.65;0.80;;;24.50;51.00;;;;;;5052175;28;20195;-54
2023/02/17 04:58:27;;;;;;;1.25;0.70;;;24.60;51.00;;;;;;5052111;28;20678;-56
2023/02/17 05:01:01;;;;;;;0.70;0.70;;;24.60;51.00;;;;;;5051413;28;20446;-53
2023/02/17 05:03:32;;;;;;;1.13;0.80;;;24.60;51.00;;;;;;5052032;28;20199;-55
2023/02/17 05:06:04;;;;;;;0.65;0.65;;;24.60;51.00;;;;;;5051901;28;20202;-54
2023/02/17 05:08:35;;;;;;;1.30;0.70;;;24.60;51.00;;;;;;5051495;28;20214;-54
2023/02/17 05:11:06;;;;;;;2.60;0.98;;;24.70;51.00;;;;;;5051949;28;20212;-54
2023/02/17 05:13:36;;;;;;;0.80;0.60;;;24.70;51.10;;;;;;5047497;28;20202;-54
2023/02/17 05:16:07;;;;;;;0.85;0.70;;;24.70;51.00;;;;;;5032160;28;20200;-53
2023/02/17 05:18:38;;;;;;;1.10;0.65;;;24.70;51.00;;;;;;5031622;28;20711;-54
2023/02/17 05:21:11;;;;;;;1.20;0.77;;;24.70;50.90;;;;;;5039469;28;20219;-53
2023/02/17 05:23:41;;;;;;;2.13;0.82;;;24.70;51.00;;;;;;5030784;28;20200;-52
2023/02/17 05:26:12;;;;;;;1.20;0.68;;;24.80;51.00;;;;;;5031285;28;20550;-53
2023/02/17 05:28:43;;;;;;;0.73;0.73;;;24.80;51.00;;;;;;5031533;28;20192;-54
2023/02/17 05:31:14;;;;;;;1.05;0.70;;;24.80;50.90;;;;;;5049156;28;20215;-51
2023/02/17 05:33:44;;;;;;;2.28;1.13;;;24.80;50.90;;;;;;5033209;28;20192;-52
2023/02/17 05:36:17;;;;;;;1.80;0.82;;;24.80;50.80;;;;;;5031024;28;20196;-52
2023/02/17 05:38:48;;;;;;;1.05;0.60;;;24.90;50.80;;;;;;5047688;28;20577;-55
2023/02/17 05:41:20;;;;;;;1.98;1.20;;;24.80;50.80;;;;;;5049534;28;20215;-55
2023/02/17 05:43:51;;;;;;;3.47;2.40;;;24.90;50.80;;;;;;5050712;28;20202;-51
2023/02/17 05:46:21;;;;;;;12.43;6.78;;;24.90;50.90;;;;;;5051114;28;20199;-51
2023/02/17 05:48:52;;;;;;;14.68;8.32;;;24.90;50.80;;;;;;5047735;28;20667;-51
2023/02/17 05:51:25;;;;;;;16.05;7.95;;;24.90;50.80;;;;;;5051062;28;20227;-55
2023/02/17 05:53:55;;;;;;;18.63;9.90;;;24.90;50.80;;;;;;5050787;28;20195;-50
2023/02/17 05:56:26;;;;;;;16.23;9.73;;;24.90;50.80;;;;;;5053379;28;20196;-53
2023/02/17 05:58:57;;;;;;;20.55;10.68;;;24.90;50.70;;;;;;5055143;28;20195;-51
2023/02/17 06:01:27;;;;;;;20.65;11.32;;;24.90;50.70;;;;;;5054733;28;20613;-54
2023/02/17 06:03:58;;;;;;;19.33;11.10;;;24.90;50.70;;;;;;5054822;28;20192;-51
2023/02/17 06:06:31;;;;;;;20.05;11.30;;;24.90;50.70;;;;;;5054496;28;20198;-53
2023/02/17 06:09:01;;;;;;;19.15;11.18;;;24.90;50.70;;;;;;5054468;28;20204;-50
2023/02/17 06:11:32;;;;;;;21.88;12.07;;;24.90;50.70;;;;;;5054670;28;20211;-53
2023/02/17 06:14:03;;;;;;;20.95;11.75;;;24.90;50.60;;;;;;5054922;28;20246;-52
2023/02/17 06:16:33;;;;;;;19.80;11.25;;;24.90;50.60;;;;;;5054806;28;20199;-54
2023/02/17 06:19:04;;;;;;;19.35;10.93;;;24.90;50.50;;;;;;5054411;28;20195;-55
2023/02/17 06:21:37;;;;;;;20.13;11.52;;;24.90;50.40;;;;;;5053773;28;20635;-52
2023/02/17 06:24:08;;;;;;;17.02;9.70;;;24.90;50.40;;;;;;5053976;28;20195;-51
2023/02/17 06:26:39;;;;;;;15.75;9.25;;;24.90;50.30;;;;;;5054607;28;20199;-54
2023/02/17 06:29:10;;;;;;;17.73;9.50;;;24.90;50.20;;;;;;5054557;28;20199;-52
2023/02/17 06:31:41;;;;;;;15.73;9.02;;;24.90;50.50;;;;;;5054870;28;20226;-54
2023/02/17 06:34:11;;;;;;;13.65;8.48;;;24.90;50.20;;;;;;5054041;28;20228;-53
2023/02/17 06:36:44;;;;;;;13.95;8.43;;;24.90;50.20;;;;;;5053726;28;20203;-55
2023/02/17 06:39:15;;;;;;;13.48;7.45;;;24.90;50.20;;;;;;5033955;28;20246;-54
2023/02/17 06:41:45;;;;;;;14.35;8.15;;;24.90;50.20;;;;;;5033509;28;20219;-53
2023/02/17 06:44:16;;;;;;;14.25;7.53;;;24.90;50.30;;;;;;5036113;28;20192;-52
2023/02/17 06:46:47;;;;;;;13.43;7.13;;;24.80;50.30;;;;;;5034163;28;20200;-54
2023/02/17 06:49:17;;;;;;;13.15;7.40;;;24.80;50.30;;;;;;5034232;28;20206;-52
2023/02/17 06:51:50;;;;;;;11.82;7.55;;;24.80;50.30;;;;;;5034076;28;20247;-51
2023/02/17 06:54:21;;;;;;;13.15;7.10;;;24.80;50.20;;;;;;5033990;28;20196;-53
2023/02/17 06:56:51;;;;;;;11.25;6.35;;;24.80;50.20;;;;;;5034526;28;20201;-54
2023/02/17 06:59:22;;;;;;;13.30;7.22;;;24.80;50.20;;;;;;5034408;28;20196;-53
2023/02/17 07:01:53;;;;;;;12.70;6.50;;;24.80;50.10;;;;;;5033645;28;20226;-54
2023/02/17 07:04:24;;;;;;;12.35;6.10;;;24.80;50.10;;;;;;5034404;28;20660;-50
2023/02/17 07:06:56;;;;;;;11.80;6.53;;;24.80;50.10;;;;;;5034195;28;20203;-53
2023/02/17 07:09:27;;;;;;;8.88;5.35;;;24.70;50.00;;;;;;5053685;28;20199;-53
2023/02/17 07:11:58;;;;;;;11.32;6.00;;;24.80;50.10;;;;;;5053223;28;20223;-54
2023/02/17 07:14:29;;;;;;;10.27;5.78;;;24.70;50.10;;;;;;5053237;28;20659;-53
2023/02/17 07:16:59;;;;;;;12.02;6.28;;;24.70;50.10;;;;;;5052708;28;20202;-54
2023/02/17 07:19:31;;;;;;;10.15;5.85;;;24.70;50.20;;;;;;5053038;28;20206;-54
2023/02/17 07:22:03;;;;;;;10.00;5.25;;;24.70;50.20;;;;;;5052456;28;20230;-51
2023/02/17 07:24:34;;;;;;;10.15;5.82;;;24.70;50.20;;;;;;5037877;28;20214;-51
2023/02/17 07:27:07;;;;;;;9.45;5.43;;;24.70;50.20;;;;;;5041090;28;20200;-53
2023/02/17 07:29:38;;;;;;;9.55;4.80;;;24.70;50.20;;;;;;5039187;28;20223;-51
2023/02/17 07:32:09;;;;;;;8.38;5.30;;;24.70;50.20;;;;;;5032853;28;20227;-53
2023/02/17 07:34:40;;;;;;;8.95;4.95;;;24.70;50.20;;;;;;5037082;28;20437;-54
2023/02/17 07:37:13;;;;;;;10.10;5.43;;;24.70;50.20;;;;;;5052614;28;20698;-51
2023/02/17 07:39:44;;;;;;;6.50;4.00;;;24.70;50.20;;;;;;5052837;28;20209;-51
2023/02/17 07:42:14;;;;;;;7.18;4.35;;;24.70;50.20;;;;;;5048366;28;20227;-52
2023/02/17 07:44:45;;;;;;;8.18;4.68;;;24.60;50.10;;;;;;5052947;28;20271;-51
2023/02/17 07:47:16;;;;;;;7.05;4.40;;;24.60;50.10;;;;;;5052643;28;20192;-54
2023/02/17 07:49:47;;;;;;;7.75;4.45;;;24.60;50.10;;;;;;5052833;28;20225;-49
2023/02/17 07:52:21;;;;;;;9.13;5.00;;;24.60;50.10;;;;;;5052897;28;20230;-50
2023/02/17 07:54:52;;;;;;;6.65;4.03;;;24.60;50.10;;;;;;5052736;28;20203;-51
2023/02/17 07:57:26;;;;;;;6.82;4.50;;;24.60;50.10;;;;;;5049438;28;20200;-60
2023/02/17 07:59:56;;;;;;;6.78;3.95;;;24.50;50.10;;;;;;5052407;28;20203;-54
2023/02/17 08:02:27;;;;;;;5.85;3.70;;;24.60;50.20;;;;;;5052016;28;20234;-54
2023/02/17 08:05:01;;;;;;;6.15;3.63;;;24.60;50.20;;;;;;5052465;28;20210;-54
2023/02/17 08:07:34;;;;;;;6.55;4.10;;;24.50;50.20;;;;;;5052465;28;20203;-54
2023/02/17 08:15:36;;;;;;;5.50;3.83;;;24.50;50.20;;;;;;5051369;28;20227;-53
2023/02/17 08:18:07;;;;;;;6.05;3.72;;;24.50;50.20;;;;;;5051863;28;20687;-54
2023/02/17 08:20:37;;;;;;;5.53;3.55;;;24.50;50.20;;;;;;5052334;28;20207;-56
2023/02/17 08:23:09;;;;;;;5.63;3.38;;;24.50;50.20;;;;;;5052061;28;20249;-54
2023/02/17 08:25:40;;;;;;;7.07;3.35;;;24.50;50.10;;;;;;5052223;28;20191;-56
2023/02/17 08:28:13;;;;;;;5.20;3.42;;;24.50;50.10;;;;;;5052407;28;20463;-58
2023/02/17 08:30:43;;;;;;;8.75;3.97;;;24.40;50.00;;;;;;5051784;28;20195;-57
2023/02/17 08:33:16;;;;;;;7.35;3.92;;;24.40;50.10;;;;;;5052017;28;20191;-55
2023/02/17 08:35:47;;;;;;;6.60;3.60;;;24.40;50.10;;;;;;5049959;28;20204;-56
2023/02/17 08:38:20;;;;;;;8.50;3.55;;;24.40;50.10;;;;;;5045077;28;20203;-56
2023/02/17 08:40:50;;;;;;;4.65;2.97;;;24.40;50.20;;;;;;5051391;28;20199;-55
2023/02/17 08:43:21;;;;;;;7.18;3.47;;;24.40;50.20;;;;;;5051269;28;20234;-56
2023/02/17 08:45:52;;;;;;;4.55;2.97;;;24.40;50.20;;;;;;5051713;28;20199;-56
2023/02/17 08:48:22;;;;;;;3.67;2.53;;;24.30;50.20;;;;;;5052010;28;20629;-56
2023/02/17 08:50:53;;;;;;;4.90;2.78;;;24.30;50.20;;;;;;5051492;28;20224;-56
2023/02/17 08:53:26;;;;;;;4.88;2.60;;;24.30;50.20;;;;;;5051622;28;20202;-57
2023/02/17 08:55:57;;;;;;;5.05;2.35;;;24.30;50.20;;;;;;5051495;28;20192;-56
2023/02/17 08:58:27;;;;;;;6.03;2.63;;;24.30;50.20;;;;;;5052039;28;20205;-56
2023/02/17 09:00:58;;;;;;;4.80;2.78;;;24.30;50.20;;;;;;5051024;28;20208;-56
2023/02/17 09:03:29;;;;;;;4.75;2.83;;;24.20;50.10;;;;;;5050833;28;20231;-56
2023/02/17 09:06:00;;;;;;;4.60;2.50;;;24.20;50.20;;;;;;5051424;28;20199;-56
2023/02/17 09:08:33;;;;;;;5.15;2.70;;;24.20;50.20;;;;;;5051549;28;20674;-56
2023/02/17 09:11:04;;;;;;;5.00;2.47;;;24.20;50.10;;;;;;5051569;28;20238;-56
2023/02/17 09:13:35;;;;;;;3.72;2.55;;;24.20;50.20;;;;;;5051802;28;20671;-56
2023/02/17 09:16:06;;;;;;;4.90;2.58;;;24.20;50.20;;;;;;5051697;28;20200;-56
2023/02/17 09:18:36;;;;;;;4.10;2.55;;;24.20;50.20;;;;;;5040214;28;20932;-55
2023/02/17 09:21:09;;;;;;;7.28;2.90;;;24.20;50.20;;;;;;5031724;28;20220;-56
2023/02/17 09:23:42;;;;;;;4.45;2.55;;;24.10;50.20;;;;;;5031516;28;20228;-57
2023/02/17 09:26:15;;;;;;;4.72;2.88;;;24.10;50.20;;;;;;5031029;28;20591;-57
2023/02/17 09:28:46;;;;;;;5.00;2.80;;;24.10;50.20;;;;;;5031241;28;20554;-56
2023/02/17 09:31:18;;;;;;;4.90;2.60;;;24.00;50.20;;;;;;5031148;28;20303;-56
2023/02/17 09:33:50;;;;;;;4.68;2.72;;;24.10;50.20;;;;;;5031681;28;20207;-56
2023/02/17 09:36:23;;;;;;;4.97;2.78;;;24.00;50.20;;;;;;5031639;28;20196;-57
2023/02/17 09:38:56;;;;;;;3.70;2.33;;;24.00;50.10;;;;;;5049280;28;20210;-57
2023/02/17 09:41:33;;;;;;;3.38;2.35;;;24.00;50.10;;;;;;5050948;28;20687;-56
2023/02/17 09:44:04;;;;;;;4.57;2.50;;;24.00;50.10;;;;;;5051222;28;20223;-57
2023/02/17 09:46:38;;;;;;;3.67;2.47;;;24.00;50.10;;;;;;5051452;28;20286;-56
2023/02/17 09:49:13;;;;;;;3.50;2.20;;;24.00;50.10;;;;;;5049174;28;20200;-56
2023/02/17 09:51:48;;;;;;;3.72;2.20;;;23.90;50.10;;;;;;5031254;28;20223;-56
2023/02/17 09:54:28;;;;;;;3.67;2.38;;;23.90;50.10;;;;;;5033949;28;20192;-55
2023/02/17 09:57:00;;;;;;;3.92;1.92;;;23.90;50.10;;;;;;5031191;28;20246;-56
2023/02/17 09:59:37;;;;;;;4.10;2.35;;;23.90;50.10;;;;;;5031512;28;20203;-55
2023/02/17 10:02:15;;;;;;;4.03;2.15;;;23.90;50.20;;;;;;5031053;28;20223;-56
2023/02/17 10:04:49;;;;;;;5.88;2.80;;;23.90;50.20;;;;;;5031239;28;20238;-56
2023/02/17 10:07:27;;;;;;;5.68;2.53;;;23.90;50.20;;;;;;5036250;28;20286;-56
2023/02/17 10:10:07;;;;;;;3.00;2.00;;;23.80;50.20;;;;;;5050867;28;20301;-56
2023/02/17 10:12:41;;;;;;;3.45;2.13;;;23.80;50.10;;;;;;5050688;28;20211;-57
2023/02/17 10:15:18;;;;;;;3.30;1.95;;;23.80;50.10;;;;;;5051079;28;20199;-57
2023/02/17 10:17:55;;;;;;;4.18;2.17;;;23.80;50.10;;;;;;5051132;28;20548;-56
2023/02/17 10:20:32;;;;;;;3.08;2.28;;;23.80;50.10;;;;;;5051017;28;20199;-55
2023/02/17 10:23:09;;;;;;;2.60;2.00;;;23.80;50.10;;;;;;5050823;28;20219;-56
2023/02/17 10:26:05;;;;;;;3.53;2.03;;;23.70;50.00;;;;;;5050554;28;20210;-56
2023/02/17 10:28:50;;;;;;;3.28;2.22;;;23.70;50.10;;;;;;5050879;28;20651;-56
2023/02/17 10:31:29;;;;;;;4.00;2.28;;;23.70;50.00;;;;;;5050649;28;20216;-56
2023/02/17 10:34:05;;;;;;;3.85;2.10;;;23.70;50.10;;;;;;5050717;28;20207;-54
2023/02/17 10:36:50;;;;;;;3.38;2.20;;;23.70;50.10;;;;;;5050718;28;20644;-56
2023/02/17 10:39:41;;;;;;;4.10;2.20;;;23.70;50.20;;;;;;5033283;28;20205;-56
2023/02/17 10:42:21;;;;;;;4.85;2.00;;;23.70;50.20;;;;;;5031070;28;20702;-54
2023/02/17 10:44:53;;;;;;;3.33;2.33;;;23.70;50.20;;;;;;5033924;28;20588;-56
2023/02/17 10:47:25;;;;;;;4.63;2.50;;;23.60;50.20;;;;;;5033853;28;20657;-56
2023/02/17 10:50:00;;;;;;;2.58;1.60;;;23.60;50.20;;;;;;5034111;28;20208;-55
2023/02/17 10:52:37;;;;;;;2.75;1.80;;;23.60;50.20;;;;;;5034202;28;20216;-56
2023/02/17 10:55:11;;;;;;;2.97;2.03;;;23.60;50.20;;;;;;5034231;28;20254;-55
2023/02/17 10:57:45;;;;;;;2.92;1.90;;;23.60;50.20;;;;;;5034839;28;20208;-56
2023/02/17 11:00:23;;;;;;;2.65;1.95;;;23.60;50.20;;;;;;5034115;28;20191;-56
2023/02/17 11:02:59;;;;;;;3.22;2.08;;;23.50;50.10;;;;;;5016510;28;20224;-57
2023/02/17 11:05:37;;;;;;;2.80;1.70;;;23.50;50.70;;;;;;5034065;28;20229;-56
2023/02/17 11:08:35;;;;;;;2.25;1.65;;;23.50;50.20;;;;;;5046448;28;20199;-57
2023/02/17 11:11:27;;;;;;;2.25;1.58;;;23.50;50.20;;;;;;5053527;28;20698;-56
2023/02/17 11:14:13;;;;;;;2.85;1.90;;;23.50;50.20;;;;;;5035780;28;20207;-57
2023/02/17 11:16:50;;;;;;;3.90;1.77;;;23.50;50.20;;;;;;5053477;28;20203;-56
2023/02/17 11:19:32;;;;;;;2.55;1.80;;;23.50;50.20;;;;;;5053568;28;20199;-56
2023/02/17 11:22:04;;;;;;;1.67;1.50;;;23.50;50.20;;;;;;5053086;28;20215;-56
2023/02/17 11:24:37;;;;;;;1.75;1.52;;;23.40;50.80;;;;;;5053107;28;20227;-57
2023/02/17 11:27:12;;;;;;;2.47;1.63;;;23.40;50.20;;;;;;5043530;28;20203;-56
2023/02/17 11:29:56;;;;;;;1.80;1.50;;;23.40;50.20;;;;;;5033584;28;20568;-56
2023/02/17 11:32:38;;;;;;;1.98;1.77;;;23.40;50.20;;;;;;5033419;28;20220;-56
2023/02/17 11:35:25;;;;;;;3.08;1.60;;;23.40;50.20;;;;;;5015820;28;20200;-56
2023/02/17 11:38:02;;;;;;;1.95;1.60;;;23.40;50.20;;;;;;5043661;28;20195;-56
2023/02/17 11:40:34;;;;;;;3.42;2.00;;;23.40;50.20;;;;;;5053791;28;20196;-57
2023/02/17 11:43:06;;;;;;;2.08;1.55;;;23.40;50.20;;;;;;5054101;28;20202;-57
2023/02/17 11:45:51;;;;;;;1.95;1.55;;;23.40;50.20;;;;;;5052939;28;20214;-57
2023/02/17 11:48:39;;;;;;;3.05;1.70;;;23.30;50.20;;;;;;5035081;28;20199;-57
2023/02/17 11:51:17;;;;;;;2.25;1.95;;;23.30;50.20;;;;;;5052897;28;20223;-57
2023/02/17 11:53:59;;;;;;;2.53;1.70;;;23.30;50.20;;;;;;5052434;28;20200;-56
2023/02/17 11:56:35;;;;;;;1.73;1.40;;;23.30;50.20;;;;;;5052742;28;20200;-57
2023/02/17 11:59:26;;;;;;;1.77;1.42;;;23.30;50.20;;;;;;5053713;28;20685;-56
2023/02/17 12:02:20;;;;;;;1.33;1.10;;;23.30;50.20;;;;;;5051440;28;20574;-57
2023/02/17 12:05:07;;;;;;;2.45;1.45;;;23.30;50.30;;;;;;5034203;28;20690;-57
2023/02/17 12:07:53;;;;;;;2.13;1.50;;;23.30;50.30;;;;;;5040262;28;20647;-57
2023/02/17 12:10:38;;;;;;;2.03;1.27;;;23.30;50.30;;;;;;5052402;28;20202;-57
2023/02/17 12:13:22;;;;;;;2.70;1.50;;;23.30;50.30;;;;;;5052870;28;20195;-57
2023/02/17 12:16:04;;;;;;;2.10;1.38;;;23.30;50.30;;;;;;5052329;28;20207;-57
2023/02/17 12:18:50;;;;;;;2.50;1.65;;;23.20;50.20;;;;;;5052250;28;20199;-55
2023/02/17 12:21:35;;;;;;;3.03;1.73;;;23.20;50.30;;;;;;5052553;28;20215;-56
2023/02/17 12:24:20;;;;;;;2.03;1.60;;;23.20;50.30;;;;;;5052865;28;20309;-57
2023/02/17 12:26:55;;;;;;;3.05;1.38;;;23.20;50.20;;;;;;5052984;28;20203;-56
2023/02/17 12:29:41;;;;;;;2.20;1.60;;;23.20;50.30;;;;;;5053165;28;20206;-56
2023/02/17 12:32:32;;;;;;;2.00;1.38;;;23.20;50.20;;;;;;5053965;28;20215;-57
2023/02/17 12:35:15;;;;;;;1.90;1.60;;;23.10;50.20;;;;;;5052557;28;20192;-56
2023/02/17 12:37:53;;;;;;;1.73;1.48;;;23.10;50.20;;;;;;5052774;28;20203;-55
2023/02/17 12:40:35;;;;;;;2.00;1.08;;;23.10;50.30;;;;;;5052150;28;20200;-56
2023/02/17 12:43:19;;;;;;;1.60;1.50;;;23.10;50.30;;;;;;5046073;28;20189;-57
2023/02/17 12:45:52;;;;;;;1.55;1.40;;;23.10;50.90;;;;;;5031959;28;20664;-56
2023/02/17 12:48:31;;;;;;;2.05;1.30;;;23.10;50.30;;;;;;5031354;28;20253;-56
2023/02/17 12:51:09;;;;;;;1.48;1.20;;;23.10;50.40;;;;;;5031800;28;20593;-56
2023/02/17 12:53:52;;;;;;;2.22;1.38;;;23.10;50.30;;;;;;5032209;28;20212;-57
2023/02/17 12:56:54;;;;;;;1.75;1.33;;;23.00;50.20;;;;;;5031941;28;20203;-56
2023/02/17 12:59:33;;;;;;;1.70;1.30;;;23.00;50.30;;;;;;5028846;28;20200;-56
2023/02/17 13:02:08;;;;;;;2.00;1.38;;;23.00;50.30;;;;;;5031578;28;20630;-56
2023/02/17 13:04:39;;;;;;;2.42;1.30;;;23.00;50.30;;;;;;5031217;28;20223;-56
2023/02/17 13:07:44;;;;;;;2.53;1.70;;;23.00;50.30;;;;;;5035236;28;20199;-55
2023/02/17 13:10:29;;;;;;;2.28;1.38;;;22.90;50.20;;;;;;5051362;28;20539;-55
2023/02/17 13:13:04;;;;;;;1.52;1.13;;;22.90;50.20;;;;;;5051169;28;20192;-56
2023/02/17 13:15:37;;;;;;;2.20;1.45;;;22.90;50.20;;;;;;5051531;28;20198;-56
2023/02/17 13:18:12;;;;;;;2.13;1.23;;;22.90;50.30;;;;;;5051469;28;20202;-56
2023/02/17 13:20:58;;;;;;;1.98;1.30;;;22.90;50.30;;;;;;5051357;28;20198;-56
2023/02/17 13:23:37;;;;;;;2.03;1.40;;;22.90;50.30;;;;;;5038416;28;20202;-56
2023/02/17 13:26:36;;;;;;;1.83;1.35;;;22.90;50.40;;;;;;5031378;28;20210;-55
2023/02/17 13:29:21;;;;;;;1.63;1.35;;;22.90;50.30;;;;;;5031322;28;20657;-56